Terminal Aerodrome Forecast
Issued by NWS Tampa Bay Area, FL

Home | Current Version | Previous Version | Text Only | Print | Product List | Glossary On
Versions: 1 2 3 4 5 6 7 8 9 10 11 12 13 14 15 16 17 18 19 20 21 22
700
FTUS42 KTBW 230538
TAFSRQ
TAF
KSRQ 230538Z 2306/2406 VRB04KT P6SM VCSH BKN050 OVC100
     FM230900 14005KT 6SM -SHRA BR BKN035 OVC070
      TEMPO 2310/2314 4SM SHRA BR BKN020
     FM231400 19008KT 6SM SHRA BR BKN025 OVC050
     FM231800 22009KT 6SM SHRA BR BKN020 OVC050
     FM232100 27009KT P6SM BKN020 OVC040
     FM240100 34007KT P6SM SCT020 SCT050 BKN250=

USA.gov is the U.S. government's official web portal to all federal, state and local government web resources and services.